sensor_id;sensor_type;location;lat;lon;timestamp;pressure;altitude;pressure_sealevel;temperature;humidity
30873;BME280;17579;42.690;2.586;2023-04-22T00:01:11;96378.66;;;15.94;59.42
30873;BME280;17579;42.690;2.586;2023-04-22T00:03:57;96382.75;;;15.83;59.63
30873;BME280;17579;42.690;2.586;2023-04-22T00:09:01;96362.25;;;15.90;59.45
30873;BME280;17579;42.690;2.586;2023-04-22T00:11:48;96360.56;;;15.83;59.64
30873;BME280;17579;42.690;2.586;2023-04-22T00:14:16;96374.56;;;15.91;59.76
30873;BME280;17579;42.690;2.586;2023-04-22T00:16:42;96380.50;;;15.87;59.70
30873;BME280;17579;42.690;2.586;2023-04-22T00:19:11;96371.66;;;15.80;60.33
30873;BME280;17579;42.690;2.586;2023-04-22T00:21:39;96371.00;;;15.77;59.81
30873;BME280;17579;42.690;2.586;2023-04-22T00:24:05;96364.03;;;15.76;60.25
30873;BME280;17579;42.690;2.586;2023-04-22T00:26:33;96362.38;;;15.75;60.18
30873;BME280;17579;42.690;2.586;2023-04-22T00:28:59;96358.91;;;15.75;59.95
30873;BME280;17579;42.690;2.586;2023-04-22T00:31:45;96358.66;;;15.63;59.97
30873;BME280;17579;42.690;2.586;2023-04-22T00:34:14;96367.50;;;15.70;59.87
30873;BME280;17579;42.690;2.586;2023-04-22T00:36:43;96362.75;;;15.66;60.10
30873;BME280;17579;42.690;2.586;2023-04-22T00:39:09;96375.66;;;15.62;60.38
30873;BME280;17579;42.690;2.586;2023-04-22T00:41:34;96344.47;;;15.56;60.60
30873;BME280;17579;42.690;2.586;2023-04-22T00:44:09;96331.72;;;15.51;60.77
30873;BME280;17579;42.690;2.586;2023-04-22T00:46:58;96331.34;;;15.54;61.41
30873;BME280;17579;42.690;2.586;2023-04-22T00:49:27;96337.06;;;15.51;61.43
30873;BME280;17579;42.690;2.586;2023-04-22T00:51:55;96347.94;;;15.56;61.33
30873;BME280;17579;42.690;2.586;2023-04-22T00:54:21;96355.13;;;15.56;61.06
30873;BME280;17579;42.690;2.586;2023-04-22T00:57:05;96300.78;;;15.50;61.86
30873;BME280;17579;42.690;2.586;2023-04-22T00:59:51;96333.34;;;15.46;62.09
30873;BME280;17579;42.690;2.586;2023-04-22T01:02:21;96349.38;;;15.52;61.78
30873;BME280;17579;42.690;2.586;2023-04-22T01:04:56;96333.63;;;15.57;61.89
30873;BME280;17579;42.690;2.586;2023-04-22T01:07:28;96337.91;;;15.52;61.95
30873;BME280;17579;42.690;2.586;2023-04-22T01:10:11;96372.75;;;15.57;61.79
30873;BME280;17579;42.690;2.586;2023-04-22T01:12:43;96330.66;;;15.46;61.77
30873;BME280;17579;42.690;2.586;2023-04-22T01:15:11;96348.91;;;15.42;62.06
30873;BME280;17579;42.690;2.586;2023-04-22T01:18:02;96311.56;;;15.29;61.96
30873;BME280;17579;42.690;2.586;2023-04-22T01:20:38;96303.78;;;15.27;62.75
30873;BME280;17579;42.690;2.586;2023-04-22T01:23:16;96328.13;;;15.24;62.16
30873;BME280;17579;42.690;2.586;2023-04-22T01:25:43;96313.38;;;15.28;62.75
30873;BME280;17579;42.690;2.586;2023-04-22T01:28:13;96328.59;;;15.34;62.59
30873;BME280;17579;42.690;2.586;2023-04-22T01:30:47;96334.75;;;15.35;62.49
30873;BME280;17579;42.690;2.586;2023-04-22T01:33:14;96339.25;;;15.34;62.71
30873;BME280;17579;42.690;2.586;2023-04-22T01:35:46;96335.13;;;15.32;62.52
30873;BME280;17579;42.690;2.586;2023-04-22T01:38:12;96327.53;;;15.29;62.38
30873;BME280;17579;42.690;2.586;2023-04-22T01:40:43;96304.13;;;15.17;62.92
30873;BME280;17579;42.690;2.586;2023-04-22T01:43:09;96315.19;;;15.14;63.34
30873;BME280;17579;42.690;2.586;2023-04-22T01:45:38;96313.69;;;15.05;63.28
30873;BME280;17579;42.690;2.586;2023-04-22T01:48:07;96313.47;;;15.00;63.43
30873;BME280;17579;42.690;2.586;2023-04-22T01:50:53;96331.50;;;15.04;63.85
30873;BME280;17579;42.690;2.586;2023-04-22T01:53:18;96321.28;;;15.08;63.70
30873;BME280;17579;42.690;2.586;2023-04-22T01:55:46;96311.22;;;15.03;63.90
30873;BME280;17579;42.690;2.586;2023-04-22T01:58:15;96311.84;;;15.05;64.11
30873;BME280;17579;42.690;2.586;2023-04-22T02:00:41;96319.25;;;15.10;63.83
30873;BME280;17579;42.690;2.586;2023-04-22T02:03:07;96326.41;;;15.10;63.93
30873;BME280;17579;42.690;2.586;2023-04-22T02:05:32;96325.19;;;15.12;63.50
30873;BME280;17579;42.690;2.586;2023-04-22T02:08:01;96337.50;;;15.13;63.58
30873;BME280;17579;42.690;2.586;2023-04-22T02:10:33;96348.16;;;15.13;62.82
30873;BME280;17579;42.690;2.586;2023-04-22T02:12:59;96313.13;;;15.16;62.52
30873;BME280;17579;42.690;2.586;2023-04-22T02:15:25;96284.34;;;14.98;63.32
30873;BME280;17579;42.690;2.586;2023-04-22T02:18:24;96333.31;;;14.97;63.43
30873;BME280;17579;42.690;2.586;2023-04-22T02:20:57;96342.81;;;15.13;63.22
30873;BME280;17579;42.690;2.586;2023-04-22T02:23:25;96305.34;;;15.15;63.34
30873;BME280;17579;42.690;2.586;2023-04-22T02:25:57;96306.34;;;15.07;63.29
30873;BME280;17579;42.690;2.586;2023-04-22T02:28:46;96336.41;;;15.01;63.19
30873;BME280;17579;42.690;2.586;2023-04-22T02:31:11;96322.88;;;15.02;63.37
30873;BME280;17579;42.690;2.586;2023-04-22T02:33:46;96313.06;;;15.03;63.18
30873;BME280;17579;42.690;2.586;2023-04-22T02:36:12;96341.78;;;15.07;62.98
30873;BME280;17579;42.690;2.586;2023-04-22T02:38:58;96335.66;;;15.14;62.81
30873;BME280;17579;42.690;2.586;2023-04-22T02:41:26;96328.09;;;15.17;62.95
30873;BME280;17579;42.690;2.586;2023-04-22T02:43:55;96333.84;;;15.21;62.59
30873;BME280;17579;42.690;2.586;2023-04-22T02:46:23;96336.97;;;15.31;62.40
30873;BME280;17579;42.690;2.586;2023-04-22T02:48:56;96327.75;;;15.27;62.44
30873;BME280;17579;42.690;2.586;2023-04-22T02:51:29;96326.06;;;15.19;62.15
30873;BME280;17579;42.690;2.586;2023-04-22T02:53:57;96351.69;;;15.20;62.43
30873;BME280;17579;42.690;2.586;2023-04-22T02:56:23;96355.34;;;15.19;62.40
30873;BME280;17579;42.690;2.586;2023-04-22T02:58:48;96349.59;;;15.16;62.73
30873;BME280;17579;42.690;2.586;2023-04-22T03:01:16;96361.06;;;15.16;62.50
30873;BME280;17579;42.690;2.586;2023-04-22T03:03:48;96339.78;;;15.16;62.12
30873;BME280;17579;42.690;2.586;2023-04-22T03:06:16;96347.75;;;15.16;61.95
30873;BME280;17579;42.690;2.586;2023-04-22T03:08:46;96352.47;;;15.14;62.30
30873;BME280;17579;42.690;2.586;2023-04-22T03:11:11;96361.06;;;15.16;62.08
30873;BME280;17579;42.690;2.586;2023-04-22T03:13:41;96367.00;;;15.18;62.07
30873;BME280;17579;42.690;2.586;2023-04-22T03:16:09;96364.19;;;15.27;61.99
30873;BME280;17579;42.690;2.586;2023-04-22T03:18:37;96349.22;;;15.25;62.01
30873;BME280;17579;42.690;2.586;2023-04-22T03:21:10;96340.38;;;15.18;62.17
30873;BME280;17579;42.690;2.586;2023-04-22T03:26:31;96344.91;;;15.18;62.06
30873;BME280;17579;42.690;2.586;2023-04-22T03:28:57;96369.88;;;15.17;62.22
30873;BME280;17579;42.690;2.586;2023-04-22T03:31:23;96362.09;;;15.15;62.58
30873;BME280;17579;42.690;2.586;2023-04-22T03:33:51;96369.00;;;15.10;62.94
30873;BME280;17579;42.690;2.586;2023-04-22T03:36:16;96379.47;;;15.11;62.78
30873;BME280;17579;42.690;2.586;2023-04-22T03:38:42;96374.78;;;15.13;62.60
30873;BME280;17579;42.690;2.586;2023-04-22T03:41:08;96374.38;;;15.16;62.42
30873;BME280;17579;42.690;2.586;2023-04-22T03:43:36;96373.41;;;15.24;62.45
30873;BME280;17579;42.690;2.586;2023-04-22T03:46:04;96362.53;;;15.25;62.26
30873;BME280;17579;42.690;2.586;2023-04-22T03:48:44;96357.88;;;15.28;61.74
30873;BME280;17579;42.690;2.586;2023-04-22T03:51:13;96354.97;;;15.22;61.79
30873;BME280;17579;42.690;2.586;2023-04-22T03:53:38;96361.50;;;15.20;61.93
30873;BME280;17579;42.690;2.586;2023-04-22T03:56:11;96383.25;;;15.23;61.87
30873;BME280;17579;42.690;2.586;2023-04-22T03:58:37;96375.06;;;15.25;61.62
30873;BME280;17579;42.690;2.586;2023-04-22T04:01:03;96366.06;;;15.26;61.38
30873;BME280;17579;42.690;2.586;2023-04-22T04:03:32;96362.38;;;15.27;61.35
30873;BME280;17579;42.690;2.586;2023-04-22T04:06:03;96356.00;;;15.28;61.39
30873;BME280;17579;42.690;2.586;2023-04-22T04:08:29;96364.00;;;15.28;61.27
30873;BME280;17579;42.690;2.586;2023-04-22T04:10:58;96357.06;;;15.27;61.29
30873;BME280;17579;42.690;2.586;2023-04-22T04:13:23;96350.88;;;15.27;61.05
30873;BME280;17579;42.690;2.586;2023-04-22T04:15:58;96339.81;;;15.23;60.97
30873;BME280;17579;42.690;2.586;2023-04-22T04:18:24;96358.47;;;15.23;60.73
30873;BME280;17579;42.690;2.586;2023-04-22T04:20:52;96359.88;;;15.25;60.71
30873;BME280;17579;42.690;2.586;2023-04-22T04:23:30;96347.59;;;15.24;60.61
30873;BME280;17579;42.690;2.586;2023-04-22T04:25:57;96347.41;;;15.26;60.50
30873;BME280;17579;42.690;2.586;2023-04-22T04:28:32;96346.75;;;15.24;60.86
30873;BME280;17579;42.690;2.586;2023-04-22T04:31:02;96356.22;;;15.27;60.71
30873;BME280;17579;42.690;2.586;2023-04-22T04:33:29;96363.00;;;15.29;60.35
30873;BME280;17579;42.690;2.586;2023-04-22T04:35:57;96357.47;;;15.31;60.30
30873;BME280;17579;42.690;2.586;2023-04-22T04:38:31;96356.00;;;15.28;60.17
30873;BME280;17579;42.690;2.586;2023-04-22T04:41:02;96368.91;;;15.24;60.60
30873;BME280;17579;42.690;2.586;2023-04-22T04:43:30;96365.84;;;15.28;60.06
30873;BME280;17579;42.690;2.586;2023-04-22T04:45:56;96359.72;;;15.27;60.05
30873;BME280;17579;42.690;2.586;2023-04-22T04:48:42;96344.28;;;15.16;60.56
30873;BME280;17579;42.690;2.586;2023-04-22T04:51:11;96349.41;;;15.17;59.70
30873;BME280;17579;42.690;2.586;2023-04-22T04:53:47;96365.75;;;15.07;59.63
30873;BME280;17579;42.690;2.586;2023-04-22T04:56:12;96354.88;;;15.09;60.09
30873;BME280;17579;42.690;2.586;2023-04-22T04:58:48;96361.88;;;15.10;59.65
30873;BME280;17579;42.690;2.586;2023-04-22T05:01:16;96366.13;;;15.04;59.85
30873;BME280;17579;42.690;2.586;2023-04-22T05:03:42;96357.75;;;15.07;59.62
30873;BME280;17579;42.690;2.586;2023-04-22T05:06:08;96371.06;;;15.07;59.75
30873;BME280;17579;42.690;2.586;2023-04-22T05:08:34;96363.88;;;15.08;59.91
30873;BME280;17579;42.690;2.586;2023-04-22T05:11:00;96374.53;;;15.08;59.43
30873;BME280;17579;42.690;2.586;2023-04-22T05:13:26;96380.06;;;15.06;59.60
30873;BME280;17579;42.690;2.586;2023-04-22T05:16:01;96368.41;;;15.07;59.51
30873;BME280;17579;42.690;2.586;2023-04-22T05:18:29;96375.56;;;15.07;59.60
30873;BME280;17579;42.690;2.586;2023-04-22T05:20:57;96383.16;;;15.10;59.40
30873;BME280;17579;42.690;2.586;2023-04-22T05:23:57;96380.50;;;15.10;59.57
30873;BME280;17579;42.690;2.586;2023-04-22T05:26:31;96397.50;;;15.09;59.43
30873;BME280;17579;42.690;2.586;2023-04-22T05:31:59;96373.13;;;15.12;58.91
30873;BME280;17579;42.690;2.586;2023-04-22T05:34:28;96376.59;;;15.06;58.98
30873;BME280;17579;42.690;2.586;2023-04-22T05:36:56;96378.25;;;15.07;59.20
30873;BME280;17579;42.690;2.586;2023-04-22T05:39:32;96382.97;;;15.12;59.46
30873;BME280;17579;42.690;2.586;2023-04-22T05:41:58;96386.66;;;15.11;59.43
30873;BME280;17579;42.690;2.586;2023-04-22T05:44:24;96382.97;;;15.12;59.40
30873;BME280;17579;42.690;2.586;2023-04-22T05:47:13;96394.22;;;15.07;59.44
30873;BME280;17579;42.690;2.586;2023-04-22T05:49:39;96393.56;;;15.05;59.09
30873;BME280;17579;42.690;2.586;2023-04-22T05:52:07;96393.16;;;15.01;58.99
30873;BME280;17579;42.690;2.586;2023-04-22T05:54:32;96402.47;;;14.90;59.04
30873;BME280;17579;42.690;2.586;2023-04-22T05:57:03;96411.66;;;14.81;59.39
30873;BME280;17579;42.690;2.586;2023-04-22T05:59:35;96419.84;;;14.86;59.41
30873;BME280;17579;42.690;2.586;2023-04-22T06:02:13;96435.63;;;14.88;59.73
30873;BME280;17579;42.690;2.586;2023-04-22T06:07:40;96443.94;;;15.00;59.00
30873;BME280;17579;42.690;2.586;2023-04-22T06:10:07;96441.72;;;15.03;59.38
30873;BME280;17579;42.690;2.586;2023-04-22T06:12:34;96453.16;;;15.04;59.25
30873;BME280;17579;42.690;2.586;2023-04-22T06:15:03;96449.06;;;15.01;59.19
30873;BME280;17579;42.690;2.586;2023-04-22T06:17:29;96450.91;;;15.01;59.43
30873;BME280;17579;42.690;2.586;2023-04-22T06:19:57;96444.56;;;15.02;59.39
30873;BME280;17579;42.690;2.586;2023-04-22T06:22:32;96433.78;;;15.10;58.80
30873;BME280;17579;42.690;2.586;2023-04-22T06:25:21;96450.09;;;15.00;59.44
30873;BME280;17579;42.690;2.586;2023-04-22T06:27:49;96456.69;;;15.04;58.84
30873;BME280;17579;42.690;2.586;2023-04-22T06:30:21;96436.84;;;15.07;59.21
30873;BME280;17579;42.690;2.586;2023-04-22T06:33:07;96449.28;;;15.00;59.13
30873;BME280;17579;42.690;2.586;2023-04-22T06:35:51;96474.28;;;15.05;58.99
30873;BME280;17579;42.690;2.586;2023-04-22T06:38:27;96451.78;;;15.08;59.40
30873;BME280;17579;42.690;2.586;2023-04-22T06:40:52;96451.56;;;15.10;59.00
30873;BME280;17579;42.690;2.586;2023-04-22T06:43:18;96466.28;;;15.05;58.95
30873;BME280;17579;42.690;2.586;2023-04-22T06:45:49;96465.94;;;15.09;59.25
30873;BME280;17579;42.690;2.586;2023-04-22T06:48:18;96450.19;;;15.14;59.13
30873;BME280;17579;42.690;2.586;2023-04-22T06:50:59;96465.97;;;15.15;59.08
30873;BME280;17579;42.690;2.586;2023-04-22T06:53:29;96463.16;;;15.23;59.44
30873;BME280;17579;42.690;2.586;2023-04-22T06:55:57;96458.28;;;15.27;59.27
30873;BME280;17579;42.690;2.586;2023-04-22T06:58:28;96461.75;;;15.28;59.11
30873;BME280;17579;42.690;2.586;2023-04-22T07:01:02;96466.69;;;15.31;59.46
30873;BME280;17579;42.690;2.586;2023-04-22T07:03:28;96460.97;;;15.34;59.33
30873;BME280;17579;42.690;2.586;2023-04-22T07:05:58;96465.72;;;15.38;59.23
30873;BME280;17579;42.690;2.586;2023-04-22T07:08:24;96469.63;;;15.42;59.15
30873;BME280;17579;42.690;2.586;2023-04-22T07:10:52;96474.16;;;15.42;58.75
30873;BME280;17579;42.690;2.586;2023-04-22T07:13:21;96466.75;;;15.37;58.77
30873;BME280;17579;42.690;2.586;2023-04-22T07:15:49;96488.63;;;15.33;58.59
30873;BME280;17579;42.690;2.586;2023-04-22T07:18:18;96483.88;;;15.28;59.26
30873;BME280;17579;42.690;2.586;2023-04-22T07:20:48;96472.63;;;15.26;59.05
30873;BME280;17579;42.690;2.586;2023-04-22T07:23:23;96486.94;;;15.25;59.31
30873;BME280;17579;42.690;2.586;2023-04-22T07:25:54;96498.25;;;15.27;59.11
30873;BME280;17579;42.690;2.586;2023-04-22T07:28:22;96478.16;;;15.31;58.83
30873;BME280;17579;42.690;2.586;2023-04-22T07:30:55;96509.13;;;15.32;58.97
30873;BME280;17579;42.690;2.586;2023-04-22T07:33:33;96497.47;;;15.33;59.31
30873;BME280;17579;42.690;2.586;2023-04-22T07:36:22;96485.22;;;15.39;58.93
30873;BME280;17579;42.690;2.586;2023-04-22T07:38:47;96483.56;;;15.38;58.61
30873;BME280;17579;42.690;2.586;2023-04-22T07:41:15;96496.25;;;15.36;58.84
30873;BME280;17579;42.690;2.586;2023-04-22T07:43:49;96502.00;;;15.39;59.03
30873;BME280;17579;42.690;2.586;2023-04-22T07:47:01;96490.16;;;15.42;58.58
30873;BME280;17579;42.690;2.586;2023-04-22T07:49:33;96500.03;;;15.48;58.91
30873;BME280;17579;42.690;2.586;2023-04-22T07:52:01;96512.53;;;15.48;58.70
30873;BME280;17579;42.690;2.586;2023-04-22T07:54:32;96496.75;;;15.46;58.68
30873;BME280;17579;42.690;2.586;2023-04-22T08:00:07;96512.88;;;15.38;58.74
30873;BME280;17579;42.690;2.586;2023-04-22T08:02:36;96512.47;;;15.41;58.99
30873;BME280;17579;42.690;2.586;2023-04-22T08:05:05;96510.44;;;15.43;58.92
30873;BME280;17579;42.690;2.586;2023-04-22T08:07:54;96509.66;;;15.49;58.58
30873;BME280;17579;42.690;2.586;2023-04-22T08:10:23;96523.38;;;15.46;58.88
30873;BME280;17579;42.690;2.586;2023-04-22T08:13:02;96521.72;;;15.45;58.80
30873;BME280;17579;42.690;2.586;2023-04-22T08:15:37;96521.34;;;15.48;58.49
30873;BME280;17579;42.690;2.586;2023-04-22T08:18:16;96532.19;;;15.47;58.82
30873;BME280;17579;42.690;2.586;2023-04-22T08:20:42;96524.00;;;15.48;58.75
30873;BME280;17579;42.690;2.586;2023-04-22T08:23:13;96516.19;;;15.47;58.64
30873;BME280;17579;42.690;2.586;2023-04-22T08:28:38;96522.34;;;15.47;58.81
30873;BME280;17579;42.690;2.586;2023-04-22T08:31:09;96516.00;;;15.48;58.82
30873;BME280;17579;42.690;2.586;2023-04-22T08:33:36;96519.50;;;15.49;58.49
30873;BME280;17579;42.690;2.586;2023-04-22T08:36:17;96526.28;;;15.51;58.88
30873;BME280;17579;42.690;2.586;2023-04-22T08:38:54;96533.72;;;15.56;58.72
30873;BME280;17579;42.690;2.586;2023-04-22T08:41:27;96543.34;;;15.57;58.88
30873;BME280;17579;42.690;2.586;2023-04-22T08:43:56;96545.00;;;15.58;58.41
30873;BME280;17579;42.690;2.586;2023-04-22T08:46:25;96555.06;;;15.63;58.56
30873;BME280;17579;42.690;2.586;2023-04-22T08:48:56;96548.72;;;15.64;58.67
30873;BME280;17579;42.690;2.586;2023-04-22T08:51:29;96536.41;;;15.63;58.25
30873;BME280;17579;42.690;2.586;2023-04-22T08:54:05;96552.41;;;15.63;58.32
30873;BME280;17579;42.690;2.586;2023-04-22T08:56:43;96555.72;;;15.65;58.35
30873;BME280;17579;42.690;2.586;2023-04-22T08:59:15;96550.19;;;15.66;58.25
30873;BME280;17579;42.690;2.586;2023-04-22T09:01:47;96543.78;;;15.61;58.38
30873;BME280;17579;42.690;2.586;2023-04-22T09:04:26;96565.31;;;15.59;58.70
30873;BME280;17579;42.690;2.586;2023-04-22T09:06:55;96558.19;;;15.66;58.52
30873;BME280;17579;42.690;2.586;2023-04-22T09:09:44;96559.38;;;15.64;58.46
30873;BME280;17579;42.690;2.586;2023-04-22T09:12:23;96564.56;;;15.72;58.02
30873;BME280;17579;42.690;2.586;2023-04-22T09:14:57;96573.38;;;15.72;58.13
30873;BME280;17579;42.690;2.586;2023-04-22T09:17:29;96551.25;;;15.72;58.01
30873;BME280;17579;42.690;2.586;2023-04-22T09:20:09;96540.97;;;15.69;57.89
30873;BME280;17579;42.690;2.586;2023-04-22T09:22:44;96567.38;;;15.64;58.28
30873;BME280;17579;42.690;2.586;2023-04-22T09:25:14;96562.91;;;15.71;58.14
30873;BME280;17579;42.690;2.586;2023-04-22T09:27:48;96549.00;;;15.75;58.11
30873;BME280;17579;42.690;2.586;2023-04-22T09:30:25;96552.16;;;15.79;57.62
30873;BME280;17579;42.690;2.586;2023-04-22T09:32:59;96554.03;;;15.85;57.91
30873;BME280;17579;42.690;2.586;2023-04-22T09:35:37;96552.03;;;15.94;57.93
30873;BME280;17579;42.690;2.586;2023-04-22T09:38:12;96559.81;;;15.96;58.09
30873;BME280;17579;42.690;2.586;2023-04-22T09:40:42;96559.88;;;16.02;57.71
30873;BME280;17579;42.690;2.586;2023-04-22T09:43:18;96564.41;;;16.08;58.10
30873;BME280;17579;42.690;2.586;2023-04-22T09:45:58;96550.28;;;16.15;57.90
30873;BME280;17579;42.690;2.586;2023-04-22T09:48:24;96554.84;;;16.21;57.21
30873;BME280;17579;42.690;2.586;2023-04-22T09:50:52;96564.09;;;16.25;57.48
30873;BME280;17579;42.690;2.586;2023-04-22T09:53:21;96558.56;;;16.33;57.24
30873;BME280;17579;42.690;2.586;2023-04-22T09:55:53;96567.03;;;16.37;57.44
30873;BME280;17579;42.690;2.586;2023-04-22T09:58:24;96568.28;;;16.48;56.88
30873;BME280;17579;42.690;2.586;2023-04-22T10:01:18;96562.72;;;16.42;57.08
30873;BME280;17579;42.690;2.586;2023-04-22T10:03:59;96566.88;;;16.52;56.83
30873;BME280;17579;42.690;2.586;2023-04-22T10:06:38;96558.66;;;16.53;56.94
30873;BME280;17579;42.690;2.586;2023-04-22T10:09:03;96551.69;;;16.52;56.43
30873;BME280;17579;42.690;2.586;2023-04-22T10:11:33;96554.38;;;16.52;56.76
30873;BME280;17579;42.690;2.586;2023-04-22T10:13:59;96542.84;;;16.52;56.55
30873;BME280;17579;42.690;2.586;2023-04-22T10:16:37;96562.75;;;16.49;56.62
30873;BME280;17579;42.690;2.586;2023-04-22T10:19:13;96560.28;;;16.48;56.56
30873;BME280;17579;42.690;2.586;2023-04-22T10:21:54;96572.81;;;16.47;56.56
30873;BME280;17579;42.690;2.586;2023-04-22T10:24:26;96589.88;;;16.53;56.50
30873;BME280;17579;42.690;2.586;2023-04-22T10:26:59;96582.47;;;16.55;57.00
30873;BME280;17579;42.690;2.586;2023-04-22T10:32:26;96585.41;;;16.67;56.28
30873;BME280;17579;42.690;2.586;2023-04-22T10:37:24;96574.34;;;16.70;56.26
30873;BME280;17579;42.690;2.586;2023-04-22T10:40:08;96572.47;;;16.70;56.36
30873;BME280;17579;42.690;2.586;2023-04-22T10:45:12;96571.66;;;16.70;56.10
30873;BME280;17579;42.690;2.586;2023-04-22T10:47:46;96574.13;;;16.71;55.71
30873;BME280;17579;42.690;2.586;2023-04-22T10:50:14;96571.47;;;16.71;55.92
30873;BME280;17579;42.690;2.586;2023-04-22T10:52:44;96567.16;;;16.77;55.78
30873;BME280;17579;42.690;2.586;2023-04-22T10:55:13;96584.03;;;16.84;55.58
30873;BME280;17579;42.690;2.586;2023-04-22T10:57:42;96583.25;;;16.90;55.54
30873;BME280;17579;42.690;2.586;2023-04-22T11:00:19;96571.53;;;16.91;55.22
30873;BME280;17579;42.690;2.586;2023-04-22T11:02:53;96582.84;;;16.93;55.63
30873;BME280;17579;42.690;2.586;2023-04-22T11:05:43;96577.53;;;17.00;55.54
30873;BME280;17579;42.690;2.586;2023-04-22T11:11:09;96574.88;;;17.07;55.14
30873;BME280;17579;42.690;2.586;2023-04-22T11:13:43;96572.81;;;17.09;55.00
30873;BME280;17579;42.690;2.586;2023-04-22T11:16:36;96582.88;;;17.00;55.26
30873;BME280;17579;42.690;2.586;2023-04-22T11:19:04;96582.47;;;17.10;55.43
30873;BME280;17579;42.690;2.586;2023-04-22T11:21:33;96581.25;;;17.12;55.10
30873;BME280;17579;42.690;2.586;2023-04-22T11:24:02;96584.34;;;17.16;55.26
30873;BME280;17579;42.690;2.586;2023-04-22T11:26:58;96581.03;;;17.21;55.70
30873;BME280;17579;42.690;2.586;2023-04-22T11:29:26;96587.44;;;17.26;55.07
30873;BME280;17579;42.690;2.586;2023-04-22T11:31:52;96589.88;;;17.28;55.41
30873;BME280;17579;42.690;2.586;2023-04-22T11:34:26;96574.50;;;17.30;55.38
30873;BME280;17579;42.690;2.586;2023-04-22T11:36:54;96584.13;;;17.31;55.42
30873;BME280;17579;42.690;2.586;2023-04-22T11:41:58;96572.22;;;17.40;54.57
30873;BME280;17579;42.690;2.586;2023-04-22T11:44:29;96579.63;;;17.45;54.58
30873;BME280;17579;42.690;2.586;2023-04-22T11:46:57;96580.25;;;17.54;54.11
30873;BME280;17579;42.690;2.586;2023-04-22T11:49:31;96576.34;;;17.56;54.63
30873;BME280;17579;42.690;2.586;2023-04-22T11:52:04;96599.56;;;17.62;54.73
30873;BME280;17579;42.690;2.586;2023-04-22T11:54:33;96587.66;;;17.65;53.96
30873;BME280;17579;42.690;2.586;2023-04-22T11:57:34;96583.34;;;17.57;53.97
30873;BME280;17579;42.690;2.586;2023-04-22T12:00:04;96592.59;;;17.68;54.17
30873;BME280;17579;42.690;2.586;2023-04-22T12:02:34;96588.06;;;17.75;53.80
30873;BME280;17579;42.690;2.586;2023-04-22T12:05:03;96566.22;;;17.78;53.66
30873;BME280;17579;42.690;2.586;2023-04-22T12:07:33;96592.78;;;17.73;53.63
30873;BME280;17579;42.690;2.586;2023-04-22T12:09:58;96588.47;;;17.79;53.18
30873;BME280;17579;42.690;2.586;2023-04-22T12:12:29;96585.97;;;17.84;53.29
30873;BME280;17579;42.690;2.586;2023-04-22T12:15:07;96590.31;;;17.85;53.57
30873;BME280;17579;42.690;2.586;2023-04-22T12:17:44;96589.28;;;17.93;53.32
30873;BME280;17579;42.690;2.586;2023-04-22T12:20:19;96576.97;;;17.92;53.36
30873;BME280;17579;42.690;2.586;2023-04-22T12:22:51;96585.38;;;17.95;52.62
30873;BME280;17579;42.690;2.586;2023-04-22T12:25:17;96588.06;;;18.02;52.72
30873;BME280;17579;42.690;2.586;2023-04-22T12:27:46;96591.75;;;18.08;52.50
30873;BME280;17579;42.690;2.586;2023-04-22T12:30:12;96586.38;;;18.14;52.35
30873;BME280;17579;42.690;2.586;2023-04-22T12:32:41;96590.09;;;18.13;52.65
30873;BME280;17579;42.690;2.586;2023-04-22T12:35:07;96595.03;;;18.16;52.45
30873;BME280;17579;42.690;2.586;2023-04-22T12:37:36;96592.13;;;18.18;51.97
30873;BME280;17579;42.690;2.586;2023-04-22T12:40:22;96584.91;;;18.18;52.38
30873;BME280;17579;42.690;2.586;2023-04-22T12:42:53;96582.88;;;18.14;52.33
30873;BME280;17579;42.690;2.586;2023-04-22T12:45:21;96582.25;;;18.18;51.99
30873;BME280;17579;42.690;2.586;2023-04-22T12:47:48;96589.03;;;18.21;52.04
30873;BME280;17579;42.690;2.586;2023-04-22T12:50:23;96589.25;;;18.26;52.13
30873;BME280;17579;42.690;2.586;2023-04-22T12:52:51;96583.25;;;18.24;51.72
30873;BME280;17579;42.690;2.586;2023-04-22T12:55:22;96585.56;;;18.21;51.63
30873;BME280;17579;42.690;2.586;2023-04-22T12:58:08;96583.47;;;18.29;51.66
30873;BME280;17579;42.690;2.586;2023-04-22T13:00:34;96579.94;;;18.35;51.96
30873;BME280;17579;42.690;2.586;2023-04-22T13:03:02;96577.47;;;18.41;51.45
30873;BME280;17579;42.690;2.586;2023-04-22T13:05:36;96562.63;;;18.45;51.51
30873;BME280;17579;42.690;2.586;2023-04-22T13:08:11;96553.31;;;18.47;51.62
30873;BME280;17579;42.690;2.586;2023-04-22T13:10:44;96561.31;;;18.61;51.47
30873;BME280;17579;42.690;2.586;2023-04-22T13:13:13;96567.00;;;18.78;51.89
30873;BME280;17579;42.690;2.586;2023-04-22T13:15:41;96556.88;;;18.86;51.46
30873;BME280;17579;42.690;2.586;2023-04-22T13:18:18;96556.13;;;19.11;51.24
30873;BME280;17579;42.690;2.586;2023-04-22T13:20:47;96564.69;;;19.52;50.94
30873;BME280;17579;42.690;2.586;2023-04-22T13:23:13;96550.94;;;20.11;50.76
30873;BME280;17579;42.690;2.586;2023-04-22T13:25:41;96553.41;;;20.49;49.77
30873;BME280;17579;42.690;2.586;2023-04-22T13:28:07;96546.06;;;21.05;48.97
30873;BME280;17579;42.690;2.586;2023-04-22T13:30:43;96549.22;;;21.56;48.52
30873;BME280;17579;42.690;2.586;2023-04-22T13:33:18;96553.25;;;22.01;47.44
30873;BME280;17579;42.690;2.586;2023-04-22T13:35:57;96558.72;;;22.30;47.59
30873;BME280;17579;42.690;2.586;2023-04-22T13:38:23;96558.97;;;21.93;46.32
30873;BME280;17579;42.690;2.586;2023-04-22T13:40:48;96565.47;;;21.50;47.03
30873;BME280;17579;42.690;2.586;2023-04-22T13:43:14;96561.75;;;21.08;47.75
30873;BME280;17579;42.690;2.586;2023-04-22T13:45:43;96562.06;;;20.70;48.59
30873;BME280;17579;42.690;2.586;2023-04-22T13:48:09;96544.22;;;20.38;48.66
30873;BME280;17579;42.690;2.586;2023-04-22T13:50:41;96548.78;;;20.19;49.64
30873;BME280;17579;42.690;2.586;2023-04-22T13:53:27;96564.78;;;19.89;49.58
30873;BME280;17579;42.690;2.586;2023-04-22T13:55:53;96564.84;;;19.82;49.69